Time;durP1;ratioP1;P1;durP2;ratioP2;P2;SDS_P1;SDS_P2;PMS_P1;PMS_P2;Temp;Humidity;BMP_temperature;BMP_pressure;BME280_temperature;BME280_humidity;BME280_pressure;Samples;Min_cycle;Max_cycle;Signal;HPM_P1;HPM_P2
2023/09/05 00:00:13;;;;;;;6.97;6.28;;;15.10;99.90;;;;;;5058867;28;20036;-76
2023/09/05 00:02:42;;;;;;;8.68;6.55;;;15.10;99.90;;;;;;5042857;28;20033;-76
2023/09/05 00:05:09;;;;;;;6.10;5.50;;;15.00;99.90;;;;;;5057801;28;20499;-76
2023/09/05 00:07:36;;;;;;;9.32;8.10;;;15.00;99.90;;;;;;5063422;28;20040;-76
2023/09/05 00:10:16;;;;;;;8.35;7.47;;;15.00;99.90;;;;;;5063417;28;20601;-76
2023/09/05 00:12:43;;;;;;;10.30;9.30;;;14.90;99.90;;;;;;5061187;28;20049;-75
2023/09/05 00:15:14;;;;;;;8.65;7.75;;;14.80;99.90;;;;;;5061988;28;20559;-75
2023/09/05 00:17:43;;;;;;;7.75;7.05;;;14.80;99.90;;;;;;5049267;28;20052;-75
2023/09/05 00:20:11;;;;;;;8.63;7.10;;;14.80;99.90;;;;;;5053313;28;20465;-76
2023/09/05 00:22:37;;;;;;;9.90;7.55;;;14.80;99.90;;;;;;5051625;28;20491;-76
2023/09/05 00:25:03;;;;;;;8.27;7.13;;;14.80;99.90;;;;;;5062506;28;20055;-76
2023/09/05 00:27:28;;;;;;;8.65;7.82;;;14.90;99.90;;;;;;5049715;28;20045;-76
2023/09/05 00:29:56;;;;;;;9.18;8.30;;;14.90;99.90;;;;;;5064282;28;20071;-75
2023/09/05 00:32:22;;;;;;;8.18;6.97;;;14.90;99.90;;;;;;5068798;28;20674;-76
2023/09/05 00:34:48;;;;;;;9.65;7.30;;;15.00;99.90;;;;;;5052805;28;20048;-76
2023/09/05 00:37:21;;;;;;;8.05;7.25;;;14.90;99.90;;;;;;5044949;28;20043;-76
2023/09/05 00:39:47;;;;;;;7.88;7.15;;;14.90;99.90;;;;;;5046703;28;20053;-76
2023/09/05 00:42:14;;;;;;;9.45;8.40;;;14.90;99.90;;;;;;5088074;28;20093;-76
2023/09/05 00:44:41;;;;;;;10.18;8.13;;;14.90;99.90;;;;;;5061214;28;20049;-76
2023/09/05 00:47:11;;;;;;;9.52;8.57;;;14.90;99.90;;;;;;5059398;28;20128;-75
2023/09/05 00:49:47;;;;;;;9.85;8.95;;;15.00;99.90;;;;;;5055181;28;20060;-76
2023/09/05 00:52:17;;;;;;;11.00;9.00;;;15.00;99.90;;;;;;5051321;28;20499;-75
2023/09/05 00:54:43;;;;;;;10.68;9.68;;;15.00;99.90;;;;;;5062312;28;20041;-76
2023/09/05 00:57:17;;;;;;;9.85;8.95;;;15.00;99.90;;;;;;5065633;28;20066;-76
2023/09/05 00:59:44;;;;;;;10.77;8.90;;;15.00;99.90;;;;;;5063113;28;20044;-76
2023/09/05 01:02:15;;;;;;;9.98;8.90;;;15.00;99.90;;;;;;5052401;28;20056;-76
2023/09/05 01:04:42;;;;;;;9.82;8.82;;;15.00;99.90;;;;;;5061361;28;20041;-75
2023/09/05 01:07:32;;;;;;;9.45;8.48;;;14.90;99.90;;;;;;5056091;28;20807;-76
2023/09/05 01:10:31;;;;;;;10.38;9.48;;;14.90;99.90;;;;;;5066417;28;20055;-76
2023/09/05 01:13:00;;;;;;;9.55;8.65;;;14.90;99.90;;;;;;5059066;28;20037;-76
2023/09/05 01:15:26;;;;;;;11.13;9.55;;;14.80;99.90;;;;;;5064339;28;20101;-76
2023/09/05 01:17:54;;;;;;;9.75;8.85;;;14.80;99.90;;;;;;5062987;28;21809;-76
2023/09/05 01:20:23;;;;;;;9.75;8.75;;;14.80;99.90;;;;;;5062428;28;20048;-76
2023/09/05 01:23:00;;;;;;;10.57;9.52;;;14.80;99.90;;;;;;5062031;28;20052;-76
2023/09/05 01:25:27;;;;;;;11.32;10.15;;;14.80;99.90;;;;;;5065188;28;20072;-76
2023/09/05 01:27:54;;;;;;;11.15;9.93;;;14.80;99.90;;;;;;5059834;28;20908;-76
2023/09/05 01:30:20;;;;;;;10.45;9.45;;;14.80;99.90;;;;;;5051021;28;20058;-76
2023/09/05 01:32:46;;;;;;;12.10;10.90;;;14.70;99.90;;;;;;5060012;28;20494;-76
2023/09/05 01:35:12;;;;;;;11.48;10.40;;;14.80;99.90;;;;;;5055312;28;20049;-75
2023/09/05 01:37:41;;;;;;;12.40;11.23;;;14.80;99.90;;;;;;5063209;28;20047;-76
2023/09/05 01:40:07;;;;;;;12.23;11.02;;;14.80;99.90;;;;;;5102321;27;20055;-76
2023/09/05 01:42:32;;;;;;;12.52;11.23;;;14.80;99.90;;;;;;5063198;28;20560;-76
2023/09/05 01:44:58;;;;;;;11.88;10.88;;;14.80;99.90;;;;;;5076137;28;20044;-76
2023/09/05 01:47:24;;;;;;;11.70;10.60;;;14.80;99.90;;;;;;5047844;28;20054;-76
2023/09/05 01:49:50;;;;;;;10.90;9.90;;;14.80;99.90;;;;;;5059716;28;20048;-76
2023/09/05 01:52:18;;;;;;;12.48;11.27;;;14.80;99.90;;;;;;5054120;28;20135;-76
2023/09/05 01:54:44;;;;;;;11.68;10.68;;;14.80;99.90;;;;;;5060626;28;20144;-76
2023/09/05 01:57:13;;;;;;;11.63;10.52;;;14.80;99.90;;;;;;5050467;28;20115;-76
2023/09/05 01:59:39;;;;;;;11.45;10.43;;;14.80;99.90;;;;;;5039260;28;20036;-76
2023/09/05 02:02:04;;;;;;;11.60;10.40;;;14.80;99.90;;;;;;5029796;28;20651;-76
2023/09/05 02:04:30;;;;;;;11.30;10.20;;;14.80;99.90;;;;;;5055715;28;20171;-76
2023/09/05 02:06:56;;;;;;;12.10;10.95;;;14.70;99.90;;;;;;5062656;28;20063;-76
2023/09/05 02:09:21;;;;;;;11.43;10.40;;;14.80;99.90;;;;;;5061527;28;20059;-75
2023/09/05 02:11:47;;;;;;;12.30;10.98;;;14.80;99.90;;;;;;5058336;28;20032;-76
2023/09/05 02:14:13;;;;;;;12.02;10.82;;;14.80;99.90;;;;;;5043247;28;20488;-76
2023/09/05 02:16:39;;;;;;;11.35;10.35;;;14.80;99.90;;;;;;5043998;28;20033;-76
2023/09/05 02:19:05;;;;;;;11.32;10.23;;;14.80;99.90;;;;;;5047820;28;20495;-76
2023/09/05 02:21:32;;;;;;;12.00;10.90;;;14.80;99.90;;;;;;5055249;28;20033;-76
2023/09/05 02:23:57;;;;;;;12.18;10.88;;;14.80;99.90;;;;;;5058978;28;20106;-76
2023/09/05 02:26:23;;;;;;;11.10;10.10;;;14.80;99.90;;;;;;5042096;28;20509;-76
2023/09/05 02:28:49;;;;;;;10.70;9.70;;;14.80;99.90;;;;;;5055707;28;20056;-76
2023/09/05 02:31:15;;;;;;;11.68;10.57;;;14.70;99.90;;;;;;5047246;28;20083;-76
2023/09/05 02:33:44;;;;;;;11.93;10.82;;;14.70;99.90;;;;;;5057444;28;20510;-76
2023/09/05 02:36:21;;;;;;;12.00;10.82;;;14.70;99.90;;;;;;5042557;28;20040;-76
2023/09/05 02:38:46;;;;;;;10.50;9.50;;;14.70;99.90;;;;;;5090183;28;20520;-76
2023/09/05 02:41:13;;;;;;;10.57;9.57;;;14.70;99.90;;;;;;5046919;28;20041;-76
2023/09/05 02:43:39;;;;;;;12.98;10.70;;;14.70;99.90;;;;;;5056920;28;20126;-76
2023/09/05 02:46:06;;;;;;;13.02;11.82;;;14.60;99.90;;;;;;5051449;28;20525;-76
2023/09/05 02:48:33;;;;;;;11.13;10.02;;;14.60;99.90;;;;;;5052758;28;20039;-76
2023/09/05 02:51:07;;;;;;;11.80;10.80;;;14.60;99.90;;;;;;5055764;28;20049;-76
2023/09/05 02:53:33;;;;;;;10.52;9.52;;;14.60;99.90;;;;;;5057232;28;20091;-76
2023/09/05 02:55:59;;;;;;;11.45;10.45;;;14.50;99.90;;;;;;5044207;28;20040;-76
2023/09/05 02:58:30;;;;;;;10.90;9.75;;;14.50;99.90;;;;;;5059347;28;20055;-76
2023/09/05 03:01:12;;;;;;;12.95;11.75;;;14.50;99.90;;;;;;5032642;28;20037;-76
2023/09/05 03:03:38;;;;;;;11.93;10.75;;;14.50;99.90;;;;;;5055248;28;20954;-76
2023/09/05 03:06:12;;;;;;;15.45;13.95;;;14.40;99.90;;;;;;5044731;28;20044;-76
2023/09/05 03:08:38;;;;;;;11.95;10.75;;;14.40;99.90;;;;;;5067896;28;20039;-76
2023/09/05 03:11:04;;;;;;;12.90;11.18;;;14.30;99.90;;;;;;5056732;28;20141;-76
2023/09/05 03:13:30;;;;;;;13.45;12.15;;;14.30;99.90;;;;;;5067119;28;20037;-76
2023/09/05 03:15:56;;;;;;;10.98;9.98;;;14.30;99.90;;;;;;5033034;28;20059;-76
2023/09/05 03:18:22;;;;;;;13.70;12.27;;;14.20;99.90;;;;;;5049287;28;20106;-76
2023/09/05 03:20:48;;;;;;;13.07;11.68;;;14.30;99.90;;;;;;5044507;28;20490;-76
2023/09/05 03:23:14;;;;;;;11.27;10.18;;;14.30;99.90;;;;;;5044828;28;20049;-76
2023/09/05 03:25:43;;;;;;;12.90;11.57;;;14.30;99.90;;;;;;5047212;28;20502;-76
2023/09/05 03:28:12;;;;;;;11.10;10.10;;;14.30;99.90;;;;;;5055563;28;20061;-76
2023/09/05 03:30:39;;;;;;;10.80;9.70;;;14.30;99.90;;;;;;5050252;28;20257;-76
2023/09/05 03:33:05;;;;;;;11.55;10.45;;;14.20;99.90;;;;;;5063550;28;20118;-76
2023/09/05 03:35:32;;;;;;;10.88;9.88;;;14.30;99.90;;;;;;5047144;28;20048;-76
2023/09/05 03:37:58;;;;;;;11.93;10.73;;;14.30;99.90;;;;;;5062940;28;20067;-76
2023/09/05 03:40:24;;;;;;;11.98;10.68;;;14.30;99.90;;;;;;5049415;28;20505;-76
2023/09/05 03:42:49;;;;;;;11.30;10.20;;;14.30;99.90;;;;;;5046113;28;20044;-76
2023/09/05 03:45:15;;;;;;;10.80;9.75;;;14.30;99.90;;;;;;5056697;28;20082;-75
2023/09/05 03:47:41;;;;;;;10.73;9.73;;;14.20;99.90;;;;;;5060228;28;20479;-76
2023/09/05 03:50:07;;;;;;;11.52;10.35;;;14.10;99.90;;;;;;5064161;28;20053;-76
2023/09/05 03:52:33;;;;;;;11.75;10.55;;;14.20;99.90;;;;;;5053468;28;20040;-76
2023/09/05 03:54:59;;;;;;;10.80;9.57;;;14.20;99.90;;;;;;5069067;28;20047;-76
2023/09/05 03:57:24;;;;;;;14.30;12.95;;;14.20;99.90;;;;;;5060053;28;20044;-76
2023/09/05 03:59:50;;;;;;;14.95;13.50;;;14.20;99.90;;;;;;5070511;28;20091;-76
2023/09/05 04:02:16;;;;;;;16.27;14.60;;;14.10;99.90;;;;;;5061304;28;20058;-76
2023/09/05 04:04:42;;;;;;;11.93;9.77;;;14.10;99.90;;;;;;5047510;28;20056;-76
2023/09/05 04:07:08;;;;;;;11.18;10.07;;;14.10;99.90;;;;;;5044611;28;20480;-76
2023/09/05 04:09:34;;;;;;;11.80;10.63;;;14.00;99.90;;;;;;5058949;28;20128;-76
2023/09/05 04:12:00;;;;;;;12.55;11.25;;;14.00;99.90;;;;;;5048177;28;20044;-76
2023/09/05 04:14:26;;;;;;;11.38;10.18;;;14.00;99.90;;;;;;5059688;28;20044;-76
2023/09/05 04:16:51;;;;;;;12.82;11.52;;;14.00;99.90;;;;;;5074602;28;20091;-76
2023/09/05 04:19:17;;;;;;;12.25;11.13;;;14.00;99.90;;;;;;5053235;28;20045;-76
2023/09/05 04:21:43;;;;;;;10.68;9.68;;;14.10;99.90;;;;;;5056011;28;20045;-76
2023/09/05 04:24:09;;;;;;;11.32;10.30;;;14.10;99.90;;;;;;5043673;28;20506;-76
2023/09/05 04:26:34;;;;;;;11.93;10.73;;;14.10;99.90;;;;;;5047816;28;20553;-76
2023/09/05 04:29:01;;;;;;;12.30;11.10;;;14.10;99.90;;;;;;5048969;28;20048;-76
2023/09/05 04:31:27;;;;;;;10.85;9.85;;;14.10;99.90;;;;;;5028193;28;20060;-76
2023/09/05 04:33:55;;;;;;;13.90;12.55;;;14.10;99.90;;;;;;5064507;28;20609;-76
2023/09/05 04:36:22;;;;;;;11.77;10.70;;;14.00;99.90;;;;;;5039048;28;20124;-76
2023/09/05 04:38:49;;;;;;;11.73;10.63;;;14.10;99.90;;;;;;5057835;28;20048;-76
2023/09/05 04:41:16;;;;;;;12.05;10.85;;;14.20;99.90;;;;;;5049294;28;20075;-76
2023/09/05 04:43:41;;;;;;;11.07;9.98;;;14.20;99.90;;;;;;5054232;28;20098;-76
2023/09/05 04:46:09;;;;;;;12.45;11.00;;;14.30;99.90;;;;;;5054472;28;20461;-76
2023/09/05 04:48:35;;;;;;;10.80;9.73;;;14.20;99.90;;;;;;5049633;28;20044;-76
2023/09/05 04:51:03;;;;;;;11.35;10.27;;;14.20;99.90;;;;;;5031668;28;20827;-76
2023/09/05 04:53:32;;;;;;;11.55;10.23;;;14.20;99.90;;;;;;5055016;28;20068;-76
2023/09/05 04:56:00;;;;;;;11.55;10.38;;;14.10;99.90;;;;;;5054852;28;20045;-76
2023/09/05 04:58:30;;;;;;;12.77;11.57;;;14.10;99.90;;;;;;5057360;28;20056;-76
2023/09/05 05:01:02;;;;;;;12.02;10.82;;;14.10;99.90;;;;;;5048802;28;20673;-76
2023/09/05 05:03:32;;;;;;;11.15;10.05;;;14.10;99.90;;;;;;5042121;28;20135;-76
2023/09/05 05:05:59;;;;;;;11.75;10.65;;;14.20;99.90;;;;;;5064727;28;20057;-76
2023/09/05 05:08:25;;;;;;;12.52;11.38;;;14.10;99.90;;;;;;5048757;28;20044;-76
2023/09/05 05:10:51;;;;;;;11.68;10.65;;;14.20;99.90;;;;;;5054988;28;20656;-76
2023/09/05 05:13:17;;;;;;;12.27;11.07;;;14.20;99.90;;;;;;5065377;28;20052;-76
2023/09/05 05:15:47;;;;;;;12.95;11.50;;;14.20;99.90;;;;;;5068864;28;20041;-76
2023/09/05 05:18:14;;;;;;;13.25;11.95;;;14.20;99.90;;;;;;5062923;28;20063;-77
2023/09/05 05:20:40;;;;;;;11.88;10.68;;;14.20;99.90;;;;;;5063457;28;20048;-76
2023/09/05 05:23:09;;;;;;;12.07;10.87;;;14.20;99.90;;;;;;5058847;28;20055;-76
2023/09/05 05:25:36;;;;;;;12.40;11.10;;;14.20;99.90;;;;;;5068760;28;20723;-77
2023/09/05 05:28:03;;;;;;;13.70;12.32;;;14.30;99.90;;;;;;5046193;28;20073;-76
2023/09/05 05:30:32;;;;;;;11.27;10.18;;;14.20;99.90;;;;;;5052519;28;20071;-77
2023/09/05 05:32:57;;;;;;;13.50;11.75;;;14.10;99.90;;;;;;5045269;28;20139;-77
2023/09/05 05:35:23;;;;;;;11.05;9.95;;;14.10;99.90;;;;;;5065166;28;20119;-77
2023/09/05 05:37:52;;;;;;;13.13;11.93;;;14.10;99.90;;;;;;5043102;28;20041;-75
2023/09/05 05:40:18;;;;;;;14.52;13.25;;;14.10;99.90;;;;;;5051944;28;20036;-78
2023/09/05 05:42:44;;;;;;;12.30;11.00;;;14.10;99.90;;;;;;5061868;28;20541;-74
2023/09/05 05:45:14;;;;;;;12.10;10.90;;;14.10;99.90;;;;;;5063256;28;20036;-75
2023/09/05 05:47:40;;;;;;;13.63;12.32;;;14.20;99.90;;;;;;5055375;28;20049;-75
2023/09/05 05:50:09;;;;;;;12.43;11.23;;;14.20;99.90;;;;;;5053356;28;20097;-75
2023/09/05 05:52:39;;;;;;;12.57;11.38;;;14.30;99.90;;;;;;5061546;28;20274;-74
2023/09/05 05:55:05;;;;;;;14.70;12.50;;;14.40;99.90;;;;;;5058218;28;20526;-74
2023/09/05 05:57:31;;;;;;;12.98;11.80;;;14.50;99.90;;;;;;5060424;28;20047;-74
2023/09/05 06:00:00;;;;;;;13.00;11.80;;;14.60;99.90;;;;;;5046190;28;20582;-74
2023/09/05 06:02:26;;;;;;;12.32;11.15;;;14.70;99.90;;;;;;5064470;28;20040;-74
2023/09/05 06:04:51;;;;;;;13.23;10.57;;;14.70;99.90;;;;;;5063182;28;20049;-74
2023/09/05 06:07:17;;;;;;;12.85;11.63;;;14.80;99.90;;;;;;5058733;28;20055;-74
2023/09/05 06:09:43;;;;;;;14.07;12.68;;;14.90;99.90;;;;;;5041667;28;20110;-74
2023/09/05 06:12:09;;;;;;;11.45;10.25;;;14.90;99.90;;;;;;5062748;28;20048;-74
2023/09/05 06:14:34;;;;;;;13.15;12.00;;;14.90;99.90;;;;;;5045287;28;20135;-74
2023/09/05 06:17:00;;;;;;;12.68;11.38;;;14.90;99.90;;;;;;5060472;28;20106;-74
2023/09/05 06:19:27;;;;;;;13.23;12.02;;;15.00;99.90;;;;;;5061896;28;20489;-74
2023/09/05 06:21:56;;;;;;;12.07;10.95;;;15.00;99.90;;;;;;5051242;28;20294;-74
2023/09/05 06:24:22;;;;;;;11.73;10.65;;;15.10;99.90;;;;;;5063306;28;20045;-74
2023/09/05 06:26:47;;;;;;;11.23;10.13;;;15.10;99.90;;;;;;5069101;28;20048;-74
2023/09/05 06:29:13;;;;;;;11.05;10.05;;;15.20;99.90;;;;;;5060806;28;20036;-74
2023/09/05 06:31:39;;;;;;;10.10;9.13;;;15.20;99.90;;;;;;5051731;28;20395;-74
2023/09/05 06:34:04;;;;;;;10.52;9.52;;;15.30;99.90;;;;;;5044793;28;20099;-74
2023/09/05 06:36:30;;;;;;;11.95;10.85;;;15.30;99.90;;;;;;5056972;28;20230;-74
2023/09/05 06:38:56;;;;;;;11.20;10.02;;;15.40;99.90;;;;;;5058943;28;20131;-74
2023/09/05 06:41:22;;;;;;;11.35;9.82;;;15.50;99.90;;;;;;5044573;28;20053;-74
2023/09/05 06:43:47;;;;;;;12.23;11.02;;;15.50;99.90;;;;;;5038919;28;20041;-74
2023/09/05 06:46:13;;;;;;;11.38;10.35;;;15.60;99.90;;;;;;5066057;28;20082;-74
2023/09/05 06:48:40;;;;;;;12.93;10.02;;;15.60;99.90;;;;;;5058761;28;20619;-74
2023/09/05 06:51:05;;;;;;;12.13;11.02;;;15.70;99.90;;;;;;5066951;28;20056;-74
2023/09/05 06:53:32;;;;;;;11.80;10.70;;;15.80;99.90;;;;;;5053998;28;20426;-74
2023/09/05 06:55:58;;;;;;;12.02;10.55;;;15.90;99.90;;;;;;5064458;28;20131;-74
2023/09/05 06:58:25;;;;;;;12.07;10.80;;;16.10;99.90;;;;;;5057522;28;20131;-74
2023/09/05 07:00:55;;;;;;;11.68;10.55;;;16.20;99.90;;;;;;5065508;28;20501;-74
2023/09/05 07:03:29;;;;;;;11.85;10.85;;;16.30;99.90;;;;;;5057317;28;20055;-74
2023/09/05 07:05:57;;;;;;;10.93;10.02;;;16.50;99.90;;;;;;5058461;28;20049;-74
2023/09/05 07:08:23;;;;;;;12.02;10.05;;;16.60;99.90;;;;;;5041525;28;20250;-74
2023/09/05 07:10:49;;;;;;;11.00;9.90;;;16.80;99.90;;;;;;5044336;28;20584;-74
2023/09/05 07:13:16;;;;;;;11.15;9.98;;;16.90;99.90;;;;;;5056512;28;20058;-74
2023/09/05 07:15:43;;;;;;;10.13;9.13;;;17.00;99.90;;;;;;5051627;28;20052;-74
2023/09/05 07:18:09;;;;;;;10.07;9.07;;;17.20;99.90;;;;;;5062707;28;20506;-74
2023/09/05 07:20:35;;;;;;;9.82;8.85;;;17.30;99.90;;;;;;5056465;28;20048;-74
2023/09/05 07:23:01;;;;;;;9.85;8.93;;;17.50;99.90;;;;;;5056396;28;20080;-74
2023/09/05 07:25:26;;;;;;;9.70;8.80;;;17.60;99.90;;;;;;5058993;28;20055;-74
2023/09/05 07:28:01;;;;;;;9.02;7.93;;;17.80;99.90;;;;;;5063458;28;20112;-74
2023/09/05 07:30:26;;;;;;;8.82;7.95;;;17.90;99.90;;;;;;5042833;28;20465;-74
2023/09/05 07:32:52;;;;;;;8.70;7.80;;;18.10;99.90;;;;;;5055029;28;20052;-74
2023/09/05 07:35:18;;;;;;;8.90;8.00;;;18.30;99.90;;;;;;5070086;28;20051;-74
2023/09/05 07:37:44;;;;;;;7.70;6.90;;;18.50;99.90;;;;;;5042926;28;20411;-74
2023/09/05 07:40:16;;;;;;;7.55;6.85;;;18.60;99.90;;;;;;5068326;28;20064;-74
2023/09/05 07:42:42;;;;;;;7.35;6.15;;;18.80;99.90;;;;;;5056913;28;20483;-74
2023/09/05 07:45:09;;;;;;;9.07;6.47;;;18.90;99.90;;;;;;5057921;28;20087;-74
2023/09/05 07:47:35;;;;;;;7.05;6.35;;;19.10;99.90;;;;;;5058999;28;20052;-74
2023/09/05 07:50:02;;;;;;;8.07;7.00;;;19.20;99.90;;;;;;5059195;28;21151;-74
2023/09/05 07:52:27;;;;;;;6.88;5.75;;;19.40;99.90;;;;;;5064685;28;20379;-74
2023/09/05 07:54:53;;;;;;;6.75;5.78;;;19.60;99.90;;;;;;5043046;28;20071;-74
2023/09/05 07:57:19;;;;;;;6.53;5.18;;;19.80;99.90;;;;;;5058512;28;20052;-74
2023/09/05 07:59:45;;;;;;;6.10;5.22;;;20.10;99.90;;;;;;5039894;28;20048;-75
2023/09/05 08:02:11;;;;;;;6.47;4.70;;;20.20;99.90;;;;;;5060607;28;20744;-75
2023/09/05 08:04:38;;;;;;;5.55;4.38;;;20.40;99.90;;;;;;5038929;28;20040;-74
2023/09/05 08:07:06;;;;;;;6.35;4.57;;;20.70;99.90;;;;;;5063564;28;20422;-74
2023/09/05 08:09:33;;;;;;;5.07;4.22;;;20.90;99.90;;;;;;5055978;28;20131;-74
2023/09/05 08:11:59;;;;;;;6.50;4.18;;;21.00;99.90;;;;;;5063677;28;20708;-75
2023/09/05 08:14:24;;;;;;;6.80;4.20;;;21.20;99.90;;;;;;5054024;28;20163;-74
2023/09/05 08:16:50;;;;;;;5.55;4.47;;;21.30;99.90;;;;;;5046643;28;20232;-74
2023/09/05 08:19:16;;;;;;;8.65;6.10;;;21.50;99.90;;;;;;5059554;28;20066;-74
2023/09/05 08:21:42;;;;;;;6.53;4.13;;;21.60;99.90;;;;;;5056493;28;20386;-75
2023/09/05 08:24:09;;;;;;;5.75;3.75;;;21.80;99.90;;;;;;5047003;28;20043;-75
2023/09/05 08:26:36;;;;;;;4.60;3.65;;;22.00;99.90;;;;;;5062478;28;20123;-74
2023/09/05 08:29:03;;;;;;;6.75;4.00;;;22.20;99.90;;;;;;5065563;28;20441;-75
2023/09/05 08:31:30;;;;;;;5.53;3.72;;;22.40;99.90;;;;;;5062292;28;20491;-75
2023/09/05 08:33:57;;;;;;;5.07;3.50;;;22.50;99.90;;;;;;5068154;28;20052;-74
2023/09/05 08:36:23;;;;;;;5.57;3.05;;;22.70;99.90;;;;;;5063511;28;20040;-75
2023/09/05 08:38:49;;;;;;;4.05;3.03;;;22.80;99.90;;;;;;5067097;28;20510;-74
2023/09/05 08:41:20;;;;;;;4.68;2.95;;;22.90;99.90;;;;;;5061408;28;20056;-75
2023/09/05 08:43:46;;;;;;;4.95;2.92;;;23.00;99.90;;;;;;5067497;28;20049;-75
2023/09/05 08:46:13;;;;;;;6.38;3.50;;;23.10;99.90;;;;;;5060504;28;20399;-75
2023/09/05 08:48:46;;;;;;;4.93;3.00;;;23.20;99.90;;;;;;5074699;28;20050;-75
2023/09/05 08:51:14;;;;;;;5.38;2.75;;;23.40;99.90;;;;;;5078325;28;20036;-74
2023/09/05 08:53:47;;;;;;;4.75;2.92;;;23.50;99.90;;;;;;5069296;28;20518;-75
2023/09/05 08:56:13;;;;;;;5.43;3.00;;;23.60;99.90;;;;;;5064839;28;20052;-75
2023/09/05 08:58:40;;;;;;;3.92;2.78;;;23.70;99.90;;;;;;5065670;28;20351;-75
2023/09/05 09:01:06;;;;;;;4.10;2.60;;;23.80;99.90;;;;;;5068397;28;20032;-75
2023/09/05 09:03:32;;;;;;;3.50;2.60;;;23.90;99.90;;;;;;5062040;28;20090;-75
2023/09/05 09:05:57;;;;;;;4.68;2.35;;;24.00;99.90;;;;;;5051120;28;20040;-75
2023/09/05 09:08:23;;;;;;;5.30;2.88;;;24.00;99.90;;;;;;5074068;28;20040;-74
2023/09/05 09:11:09;;;;;;;4.00;2.17;;;24.10;99.90;;;;;;5056956;28;20040;-75
2023/09/05 09:13:36;;;;;;;3.10;2.35;;;24.30;99.90;;;;;;5044591;28;20040;-74
2023/09/05 09:16:02;;;;;;;4.15;2.40;;;24.40;99.90;;;;;;5060929;28;20049;-75
2023/09/05 09:18:31;;;;;;;4.22;2.50;;;24.50;99.90;;;;;;5042542;28;20097;-75
2023/09/05 09:21:01;;;;;;;3.28;2.35;;;24.50;99.90;;;;;;5069690;28;20518;-75
2023/09/05 09:23:29;;;;;;;5.00;2.33;;;24.60;99.90;;;;;;5046726;28;20060;-75
2023/09/05 09:25:55;;;;;;;4.15;2.10;;;24.70;99.90;;;;;;5075051;28;20043;-75
2023/09/05 09:28:23;;;;;;;3.65;2.10;;;24.80;99.90;;;;;;5066879;28;20048;-75
2023/09/05 09:31:15;;;;;;;4.75;2.05;;;24.90;99.90;;;;;;5061069;28;20391;-74
2023/09/05 09:33:42;;;;;;;5.13;2.40;;;25.10;99.90;;;;;;5043505;28;20073;-74
2023/09/05 09:36:15;;;;;;;4.95;2.10;;;25.10;99.90;;;;;;5044942;28;20124;-74
2023/09/05 09:38:43;;;;;;;5.20;2.15;;;25.20;99.90;;;;;;5045730;28;20039;-75
2023/09/05 09:41:11;;;;;;;4.20;2.35;;;25.30;99.90;;;;;;5058457;28;20487;-74
2023/09/05 09:43:37;;;;;;;2.60;1.73;;;25.40;99.90;;;;;;5066391;28;20123;-75
2023/09/05 09:46:08;;;;;;;2.58;1.65;;;25.50;99.90;;;;;;5051787;28;20045;-75
2023/09/05 09:48:35;;;;;;;3.97;1.90;;;25.60;99.90;;;;;;5050147;28;20036;-75
2023/09/05 09:51:05;;;;;;;2.35;1.88;;;25.80;99.90;;;;;;5059790;28;20051;-75
2023/09/05 09:53:36;;;;;;;3.67;1.80;;;25.80;99.90;;;;;;5072981;28;20112;-75
2023/09/05 09:56:07;;;;;;;3.53;1.95;;;25.90;99.90;;;;;;5059020;28;20059;-74
2023/09/05 09:58:34;;;;;;;3.35;2.13;;;26.00;99.90;;;;;;5052521;28;20036;-72
2023/09/05 10:01:02;;;;;;;2.22;1.70;;;26.10;99.90;;;;;;5055120;28;20041;-75
2023/09/05 10:03:28;;;;;;;3.80;1.80;;;26.20;99.90;;;;;;5048072;28;20051;-75
2023/09/05 10:05:54;;;;;;;4.78;1.95;;;26.30;99.90;;;;;;5041891;28;20048;-75
2023/09/05 10:08:21;;;;;;;2.83;1.63;;;26.30;99.90;;;;;;5046716;28;20478;-75
2023/09/05 10:10:48;;;;;;;4.78;1.83;;;26.50;99.90;;;;;;5045553;28;20043;-75
2023/09/05 10:13:15;;;;;;;2.80;1.50;;;26.50;99.90;;;;;;5062845;28;20044;-75
2023/09/05 10:15:47;;;;;;;3.72;1.85;;;26.70;99.90;;;;;;5068389;28;20040;-75
2023/09/05 10:18:15;;;;;;;3.47;1.90;;;26.80;99.90;;;;;;5061836;28;20519;-75
2023/09/05 10:20:46;;;;;;;3.05;1.67;;;26.80;99.90;;;;;;5046431;28;20047;-75
2023/09/05 10:23:14;;;;;;;2.90;1.75;;;26.90;99.90;;;;;;5082862;28;20052;-75
2023/09/05 10:25:45;;;;;;;3.83;1.73;;;26.90;99.90;;;;;;5043485;28;20048;-75
2023/09/05 10:28:13;;;;;;;2.50;1.80;;;27.00;99.90;;;;;;5044584;28;20801;-75
2023/09/05 10:30:43;;;;;;;1.95;1.42;;;27.10;99.90;;;;;;5046601;28;20041;-75
2023/09/05 10:33:12;;;;;;;;;;;27.20;99.90;;;;;;5064458;28;20048;-75
2023/09/05 10:35:44;;;;;;;3.55;1.80;;;27.30;99.60;;;;;;5063999;28;19931;-75
2023/09/05 10:38:11;;;;;;;2.58;1.52;;;27.40;99.90;;;;;;5058415;28;20072;-75
2023/09/05 10:40:43;;;;;;;1.88;1.33;;;27.40;99.90;;;;;;5044775;28;20353;-75
2023/09/05 10:43:18;;;;;;;2.83;1.42;;;27.50;99.60;;;;;;5046943;28;20079;-75
2023/09/05 10:45:53;;;;;;;2.85;1.45;;;27.60;98.40;;;;;;5097134;27;20053;-75
2023/09/05 10:48:32;;;;;;;2.63;1.45;;;27.70;98.90;;;;;;5058060;28;20492;-75
2023/09/05 10:51:13;;;;;;;2.00;1.25;;;27.70;97.70;;;;;;5057568;28;20140;-75
2023/09/05 10:53:43;;;;;;;3.15;1.30;;;27.80;97.80;;;;;;5049323;28;21693;-75
2023/09/05 10:56:43;;;;;;;2.63;1.48;;;27.90;97.20;;;;;;5039756;28;20048;-74
2023/09/05 10:59:29;;;;;;;3.15;1.67;;;27.90;97.20;;;;;;5060240;28;20057;-75
2023/09/05 11:02:08;;;;;;;2.13;1.20;;;28.00;98.10;;;;;;5058716;28;20052;-75
2023/09/05 11:04:34;;;;;;;3.00;1.38;;;28.10;97.70;;;;;;5091239;28;20056;-75
2023/09/05 11:07:03;;;;;;;3.33;1.50;;;28.20;98.30;;;;;;5057333;28;20036;-74
2023/09/05 11:09:29;;;;;;;2.33;1.45;;;28.20;96.20;;;;;;5051406;28;20089;-75
2023/09/05 11:11:55;;;;;;;3.28;1.15;;;28.20;95.80;;;;;;5049225;28;20131;-75
2023/09/05 11:14:32;;;;;;;2.97;1.50;;;28.20;96.00;;;;;;5059383;28;20135;-75
2023/09/05 11:16:58;;;;;;;3.50;1.52;;;28.20;95.50;;;;;;5046201;28;20064;-74
2023/09/05 11:19:41;;;;;;;2.08;0.93;;;28.20;96.30;;;;;;5058260;28;20079;-75
2023/09/05 11:22:17;;;;;;;2.13;1.25;;;28.30;93.90;;;;;;5084711;28;20084;-74
2023/09/05 11:24:48;;;;;;;2.58;1.00;;;28.30;94.10;;;;;;5051379;28;20093;-74
2023/09/05 11:27:26;;;;;;;2.00;1.20;;;28.40;93.30;;;;;;5044694;28;20052;-74
2023/09/05 11:29:57;;;;;;;3.00;1.20;;;28.40;93.10;;;;;;5046090;28;20045;-75
2023/09/05 11:32:34;;;;;;;2.85;1.45;;;28.50;92.30;;;;;;5045702;28;20134;-75
2023/09/05 11:35:03;;;;;;;2.42;1.13;;;28.50;90.70;;;;;;5047339;28;20495;-75
2023/09/05 11:37:30;;;;;;;3.00;1.50;;;28.50;91.80;;;;;;5054667;28;20040;-74
2023/09/05 11:40:28;;;;;;;2.03;1.40;;;28.50;92.90;;;;;;5059703;28;21227;-72
2023/09/05 11:43:09;;;;;;;2.13;1.17;;;28.60;91.80;;;;;;5047681;28;20149;-72
2023/09/05 11:45:37;;;;;;;2.35;1.50;;;28.70;92.70;;;;;;5042914;28;20063;-72
2023/09/05 11:48:05;;;;;;;2.92;1.20;;;28.70;92.60;;;;;;5049189;28;20064;-72
2023/09/05 11:50:34;;;;;;;2.75;1.48;;;28.80;92.70;;;;;;5067945;28;20085;-72
2023/09/05 11:53:02;;;;;;;1.95;0.98;;;28.80;92.70;;;;;;5062962;28;20152;-74
2023/09/05 11:55:29;;;;;;;2.30;1.35;;;28.80;92.70;;;;;;5067040;28;20040;-75
2023/09/05 11:57:57;;;;;;;3.15;1.45;;;28.90;92.30;;;;;;5050329;28;20045;-75
2023/09/05 12:00:24;;;;;;;1.58;1.13;;;28.90;92.20;;;;;;5074776;28;20060;-74
2023/09/05 12:02:57;;;;;;;1.60;0.93;;;28.90;90.70;;;;;;5060039;28;20071;-75
2023/09/05 12:05:23;;;;;;;3.65;1.38;;;28.90;90.00;;;;;;5064537;28;20671;-75
2023/09/05 12:07:50;;;;;;;1.52;1.00;;;28.90;90.50;;;;;;5092686;27;20041;-75
2023/09/05 12:10:16;;;;;;;3.78;1.25;;;28.80;89.10;;;;;;5083464;28;20045;-74
2023/09/05 12:12:58;;;;;;;1.48;1.13;;;28.90;90.30;;;;;;5059062;28;20083;-72
2023/09/05 12:15:37;;;;;;;6.47;1.55;;;28.90;90.50;;;;;;5048968;28;20047;-72
2023/09/05 12:18:05;;;;;;;3.10;1.17;;;29.00;90.50;;;;;;5047721;28;20112;-72
2023/09/05 12:20:32;;;;;;;3.03;1.10;;;29.10;90.20;;;;;;5059581;28;20241;-72
2023/09/05 12:22:58;;;;;;;3.17;1.20;;;29.10;88.30;;;;;;5060933;28;20040;-73
2023/09/05 12:25:26;;;;;;;3.28;1.23;;;29.10;89.10;;;;;;5099825;28;20056;-73
2023/09/05 12:27:55;;;;;;;1.58;1.08;;;29.10;90.40;;;;;;5065766;28;20044;-72
2023/09/05 12:30:27;;;;;;;1.88;1.05;;;29.10;90.20;;;;;;5060566;28;20062;-74
2023/09/05 12:32:57;;;;;;;4.15;1.05;;;29.10;91.60;;;;;;5058738;28;20569;-73
2023/09/05 12:35:25;;;;;;;2.60;1.20;;;29.10;91.10;;;;;;5070269;28;20052;-73
2023/09/05 12:37:53;;;;;;;2.78;1.02;;;29.10;90.10;;;;;;5063240;28;20483;-73
2023/09/05 12:40:18;;;;;;;2.65;1.30;;;29.20;90.30;;;;;;5064781;28;20044;-74
2023/09/05 12:42:44;;;;;;;4.57;1.40;;;29.20;87.90;;;;;;5052957;28;20055;-74